Impacts TAF Board INFO
FOR SITUATIONAL AWARENESS. NOT TO BE USED FOR FLIGHT PLANNING PURPOSES.
IDs:

KPDX - Portland Intl Arpt, OR, US

Issued at 0818 UTC 20 Nov 2017
Updated at 0947 UTC 20 Nov 2017
Potential Impact None Slight Moderate High
Time<<20/22Z 20/23Z 21/00Z 21/01Z 21/02Z 21/03Z 21/04Z 21/05Z 21/06Z 21/07Z 21/08Z 21/09Z 21/10Z>>
Type PRVL PRVL PRVL PRVL PRVL PRVL PRVL PRVL
VIS >6 >6 >6 >6 >6 >6 >6 >6
CIG 35 35 70 70 70 70 70 70
Cover OVC OVC BKN BKN BKN BKN BKN BKN
FltCat VFR VFR VFR VFR VFR VFR VFR VFR
WX -- -- -- -- -- -- -- --
WDir 200 200 VRB VRB VRB VRB VRB VRB
WSpd 6 6 3 3 3 3 3 3
WGst -- -- -- -- -- -- -- --

Raw TAF
KPDX 200818Z 2008/2106 10009KT P6SM -RA OVC020
  FM201000 19015G25KT 6SM -RA BR BKN015 OVC025
  FM201200 19010KT P6SM -RA SCT008 BKN015 OVC025
  FM201600 18007KT P6SM VCSH SCT008 BKN015 OVC025
  FM201900 20006KT P6SM SCT020 BKN035 OVC050
  FM210000 VRB03KT P6SM SCT040 BKN070


METAR Board
Radar Display
Forecast Discussion

FOR SITUATIONAL AWARENESS. NOT TO BE USED FOR FLIGHT PLANNING PURPOSES.